sensor_id;sensor_type;location;lat;lon;timestamp;temperature;humidity
71942;DHT22;59997;53.300;-6.260;2023-08-30T00:00:45;11.74;88.70
71942;DHT22;59997;53.300;-6.260;2023-08-30T00:03:11;11.73;88.78
71942;DHT22;59997;53.300;-6.260;2023-08-30T00:05:42;11.73;88.69
71942;DHT22;59997;53.300;-6.260;2023-08-30T00:08:10;11.84;88.67
71942;DHT22;59997;53.300;-6.260;2023-08-30T00:10:35;11.92;88.60
71942;DHT22;59997;53.300;-6.260;2023-08-30T00:13:03;12.01;88.51
71942;DHT22;59997;53.300;-6.260;2023-08-30T00:15:30;11.92;88.43
71942;DHT22;59997;53.300;-6.260;2023-08-30T00:17:56;11.87;88.67
71942;DHT22;59997;53.300;-6.260;2023-08-30T00:20:22;11.88;88.69
71942;DHT22;59997;53.300;-6.260;2023-08-30T00:22:48;11.77;88.75
71942;DHT22;59997;53.300;-6.260;2023-08-30T00:25:21;11.75;88.82
71942;DHT22;59997;53.300;-6.260;2023-08-30T00:27:48;11.67;88.86
71942;DHT22;59997;53.300;-6.260;2023-08-30T00:30:13;11.69;88.84
71942;DHT22;59997;53.300;-6.260;2023-08-30T00:32:39;11.64;88.90
71942;DHT22;59997;53.300;-6.260;2023-08-30T00:35:05;11.62;88.85
71942;DHT22;59997;53.300;-6.260;2023-08-30T00:37:31;11.64;88.79
71942;DHT22;59997;53.300;-6.260;2023-08-30T00:39:57;11.56;88.85
71942;DHT22;59997;53.300;-6.260;2023-08-30T00:42:22;11.50;88.85
71942;DHT22;59997;53.300;-6.260;2023-08-30T00:44:48;11.46;88.82
71942;DHT22;59997;53.300;-6.260;2023-08-30T00:47:14;11.46;88.90
71942;DHT22;59997;53.300;-6.260;2023-08-30T00:49:40;11.36;88.84
71942;DHT22;59997;53.300;-6.260;2023-08-30T00:52:08;11.39;88.87
71942;DHT22;59997;53.300;-6.260;2023-08-30T00:54:35;11.29;88.85
71942;DHT22;59997;53.300;-6.260;2023-08-30T00:57:02;11.26;88.92
71942;DHT22;59997;53.300;-6.260;2023-08-30T00:59:29;11.23;89.09
71942;DHT22;59997;53.300;-6.260;2023-08-30T01:01:59;11.25;88.99
71942;DHT22;59997;53.300;-6.260;2023-08-30T01:04:25;11.19;89.09
71942;DHT22;59997;53.300;-6.260;2023-08-30T01:06:51;11.15;89.19
71942;DHT22;59997;53.300;-6.260;2023-08-30T01:09:18;11.14;89.21
71942;DHT22;59997;53.300;-6.260;2023-08-30T01:17:10;11.10;89.41
71942;DHT22;59997;53.300;-6.260;2023-08-30T01:27:38;11.49;89.15
71942;DHT22;59997;53.300;-6.260;2023-08-30T01:30:06;11.50;89.13
71942;DHT22;59997;53.300;-6.260;2023-08-30T01:32:34;11.53;89.15
71942;DHT22;59997;53.300;-6.260;2023-08-30T01:35:02;11.50;89.16
71942;DHT22;59997;53.300;-6.260;2023-08-30T01:37:29;11.43;89.19
71942;DHT22;59997;53.300;-6.260;2023-08-30T01:39:57;11.47;89.26
71942;DHT22;59997;53.300;-6.260;2023-08-30T01:42:24;11.54;89.18
71942;DHT22;59997;53.300;-6.260;2023-08-30T01:44:53;11.54;89.20
71942;DHT22;59997;53.300;-6.260;2023-08-30T01:47:27;11.63;89.15
71942;DHT22;59997;53.300;-6.260;2023-08-30T01:49:55;11.74;89.19
71942;DHT22;59997;53.300;-6.260;2023-08-30T01:52:23;11.80;89.13
71942;DHT22;59997;53.300;-6.260;2023-08-30T01:54:51;11.84;89.07
71942;DHT22;59997;53.300;-6.260;2023-08-30T01:57:19;11.89;89.00
71942;DHT22;59997;53.300;-6.260;2023-08-30T01:59:45;11.88;89.14
71942;DHT22;59997;53.300;-6.260;2023-08-30T02:02:10;11.99;88.91
71942;DHT22;59997;53.300;-6.260;2023-08-30T02:04:36;12.05;88.96
71942;DHT22;59997;53.300;-6.260;2023-08-30T02:07:04;12.08;88.88
71942;DHT22;59997;53.300;-6.260;2023-08-30T02:09:39;12.11;88.95
71942;DHT22;59997;53.300;-6.260;2023-08-30T02:12:09;12.13;88.93
71942;DHT22;59997;53.300;-6.260;2023-08-30T02:14:36;12.12;89.05
71942;DHT22;59997;53.300;-6.260;2023-08-30T02:17:05;12.09;89.08
71942;DHT22;59997;53.300;-6.260;2023-08-30T02:19:31;12.08;89.13
71942;DHT22;59997;53.300;-6.260;2023-08-30T02:21:58;12.09;89.19
71942;DHT22;59997;53.300;-6.260;2023-08-30T02:24:24;12.08;89.18
71942;DHT22;59997;53.300;-6.260;2023-08-30T02:26:50;12.11;89.13
71942;DHT22;59997;53.300;-6.260;2023-08-30T02:29:15;12.15;89.08
71942;DHT22;59997;53.300;-6.260;2023-08-30T02:31:41;12.16;88.94
71942;DHT22;59997;53.300;-6.260;2023-08-30T02:34:07;12.12;89.13
71942;DHT22;59997;53.300;-6.260;2023-08-30T02:36:32;12.09;89.11
71942;DHT22;59997;53.300;-6.260;2023-08-30T02:38:58;11.99;89.25
71942;DHT22;59997;53.300;-6.260;2023-08-30T02:41:23;11.84;89.44
71942;DHT22;59997;53.300;-6.260;2023-08-30T02:43:49;11.82;89.44
71942;DHT22;59997;53.300;-6.260;2023-08-30T02:46:14;11.78;89.46
71942;DHT22;59997;53.300;-6.260;2023-08-30T02:48:40;11.73;89.54
71942;DHT22;59997;53.300;-6.260;2023-08-30T02:51:05;11.62;89.52
71942;DHT22;59997;53.300;-6.260;2023-08-30T02:53:31;11.57;89.51
71942;DHT22;59997;53.300;-6.260;2023-08-30T02:55:57;11.56;89.54
71942;DHT22;59997;53.300;-6.260;2023-08-30T02:58:23;11.46;89.48
71942;DHT22;59997;53.300;-6.260;2023-08-30T03:00:48;11.46;89.48
71942;DHT22;59997;53.300;-6.260;2023-08-30T03:03:14;11.37;89.45
71942;DHT22;59997;53.300;-6.260;2023-08-30T03:05:40;11.33;89.45
71942;DHT22;59997;53.300;-6.260;2023-08-30T03:08:06;11.37;89.45
71942;DHT22;59997;53.300;-6.260;2023-08-30T03:10:31;11.39;89.44
71942;DHT22;59997;53.300;-6.260;2023-08-30T03:12:57;11.44;89.33
71942;DHT22;59997;53.300;-6.260;2023-08-30T03:15:23;11.46;89.35
71942;DHT22;59997;53.300;-6.260;2023-08-30T03:17:49;11.35;89.37
71942;DHT22;59997;53.300;-6.260;2023-08-30T03:20:15;11.35;89.38
71942;DHT22;59997;53.300;-6.260;2023-08-30T03:22:41;11.39;89.39
71942;DHT22;59997;53.300;-6.260;2023-08-30T03:25:08;11.30;89.41
71942;DHT22;59997;53.300;-6.260;2023-08-30T03:27:35;11.29;89.51
71942;DHT22;59997;53.300;-6.260;2023-08-30T03:30:03;11.33;89.46
71942;DHT22;59997;53.300;-6.260;2023-08-30T03:32:29;11.29;89.50
71942;DHT22;59997;53.300;-6.260;2023-08-30T03:34:57;11.29;89.57
71942;DHT22;59997;53.300;-6.260;2023-08-30T03:37:23;11.23;89.57
71942;DHT22;59997;53.300;-6.260;2023-08-30T03:39:49;11.33;89.57
71942;DHT22;59997;53.300;-6.260;2023-08-30T03:42:15;11.25;89.51
71942;DHT22;59997;53.300;-6.260;2023-08-30T03:44:41;11.18;89.64
71942;DHT22;59997;53.300;-6.260;2023-08-30T03:47:06;11.19;89.63
71942;DHT22;59997;53.300;-6.260;2023-08-30T03:49:32;11.15;89.68
71942;DHT22;59997;53.300;-6.260;2023-08-30T03:51:58;11.10;89.77
71942;DHT22;59997;53.300;-6.260;2023-08-30T03:54:23;11.12;89.87
71942;DHT22;59997;53.300;-6.260;2023-08-30T03:56:49;11.25;89.85
71942;DHT22;59997;53.300;-6.260;2023-08-30T03:59:15;11.32;89.83
71942;DHT22;59997;53.300;-6.260;2023-08-30T04:01:41;11.40;89.74
71942;DHT22;59997;53.300;-6.260;2023-08-30T04:04:07;11.47;89.65
71942;DHT22;59997;53.300;-6.260;2023-08-30T04:06:32;11.54;89.58
71942;DHT22;59997;53.300;-6.260;2023-08-30T04:08:58;11.56;89.58
71942;DHT22;59997;53.300;-6.260;2023-08-30T04:11:24;11.62;89.57
71942;DHT22;59997;53.300;-6.260;2023-08-30T04:13:49;11.57;89.51
71942;DHT22;59997;53.300;-6.260;2023-08-30T04:16:16;11.63;89.48
71942;DHT22;59997;53.300;-6.260;2023-08-30T04:18:41;11.63;89.47
71942;DHT22;59997;53.300;-6.260;2023-08-30T04:21:07;11.59;89.58
71942;DHT22;59997;53.300;-6.260;2023-08-30T04:23:34;11.63;89.53
71942;DHT22;59997;53.300;-6.260;2023-08-30T04:26:00;11.64;89.51
71942;DHT22;59997;53.300;-6.260;2023-08-30T04:28:26;11.64;89.55
71942;DHT22;59997;53.300;-6.260;2023-08-30T04:30:56;11.64;89.57
71942;DHT22;59997;53.300;-6.260;2023-08-30T04:33:23;11.60;89.55
71942;DHT22;59997;53.300;-6.260;2023-08-30T04:35:53;11.59;89.64
71942;DHT22;59997;53.300;-6.260;2023-08-30T04:38:20;11.52;89.70
71942;DHT22;59997;53.300;-6.260;2023-08-30T04:40:47;11.30;89.78
71942;DHT22;59997;53.300;-6.260;2023-08-30T04:43:13;11.32;89.79
71942;DHT22;59997;53.300;-6.260;2023-08-30T04:45:39;11.30;89.72
71942;DHT22;59997;53.300;-6.260;2023-08-30T04:48:06;11.25;89.80
71942;DHT22;59997;53.300;-6.260;2023-08-30T04:50:31;11.15;89.79
71942;DHT22;59997;53.300;-6.260;2023-08-30T04:52:57;11.02;89.93
71942;DHT22;59997;53.300;-6.260;2023-08-30T04:55:30;11.02;89.94
71942;DHT22;59997;53.300;-6.260;2023-08-30T04:57:56;11.08;90.06
71942;DHT22;59997;53.300;-6.260;2023-08-30T05:00:22;10.97;90.08
71942;DHT22;59997;53.300;-6.260;2023-08-30T05:02:47;10.91;90.20
71942;DHT22;59997;53.300;-6.260;2023-08-30T05:05:14;10.93;90.18
71942;DHT22;59997;53.300;-6.260;2023-08-30T05:07:40;10.81;90.27
71942;DHT22;59997;53.300;-6.260;2023-08-30T05:10:07;10.85;90.31
71942;DHT22;59997;53.300;-6.260;2023-08-30T05:12:34;10.80;90.27
71942;DHT22;59997;53.300;-6.260;2023-08-30T05:15:00;10.77;90.39
71942;DHT22;59997;53.300;-6.260;2023-08-30T05:17:26;10.66;90.41
71942;DHT22;59997;53.300;-6.260;2023-08-30T05:19:54;10.70;90.57
71942;DHT22;59997;53.300;-6.260;2023-08-30T05:22:20;10.64;90.62
71942;DHT22;59997;53.300;-6.260;2023-08-30T05:24:46;10.73;90.61
71942;DHT22;59997;53.300;-6.260;2023-08-30T05:27:13;10.69;90.63
71942;DHT22;59997;53.300;-6.260;2023-08-30T05:29:43;10.70;90.68
71942;DHT22;59997;53.300;-6.260;2023-08-30T05:32:09;10.71;90.77
71942;DHT22;59997;53.300;-6.260;2023-08-30T05:34:35;10.87;90.75
71942;DHT22;59997;53.300;-6.260;2023-08-30T05:37:01;10.87;90.64
71942;DHT22;59997;53.300;-6.260;2023-08-30T05:39:26;10.78;90.61
71942;DHT22;59997;53.300;-6.260;2023-08-30T05:41:52;10.81;90.73
71942;DHT22;59997;53.300;-6.260;2023-08-30T05:44:18;10.70;90.72
71942;DHT22;59997;53.300;-6.260;2023-08-30T05:46:43;10.77;90.89
71942;DHT22;59997;53.300;-6.260;2023-08-30T05:49:09;10.95;90.81
71942;DHT22;59997;53.300;-6.260;2023-08-30T05:51:35;10.93;90.73
71942;DHT22;59997;53.300;-6.260;2023-08-30T05:54:00;10.88;90.76
71942;DHT22;59997;53.300;-6.260;2023-08-30T05:56:28;10.91;90.81
71942;DHT22;59997;53.300;-6.260;2023-08-30T05:58:54;10.94;90.77
71942;DHT22;59997;53.300;-6.260;2023-08-30T06:01:21;10.95;90.73
71942;DHT22;59997;53.300;-6.260;2023-08-30T06:03:47;11.00;90.69
71942;DHT22;59997;53.300;-6.260;2023-08-30T06:06:13;11.07;90.59
71942;DHT22;59997;53.300;-6.260;2023-08-30T06:08:39;11.16;90.48
71942;DHT22;59997;53.300;-6.260;2023-08-30T06:11:05;11.18;90.43
71942;DHT22;59997;53.300;-6.260;2023-08-30T06:13:31;11.14;90.42
71942;DHT22;59997;53.300;-6.260;2023-08-30T06:15:56;11.28;90.31
71942;DHT22;59997;53.300;-6.260;2023-08-30T06:18:22;11.29;90.37
71942;DHT22;59997;53.300;-6.260;2023-08-30T06:20:49;11.42;90.27
71942;DHT22;59997;53.300;-6.260;2023-08-30T06:23:19;11.53;90.20
71942;DHT22;59997;53.300;-6.260;2023-08-30T06:25:52;11.67;90.11
71942;DHT22;59997;53.300;-6.260;2023-08-30T06:28:19;11.91;89.91
71942;DHT22;59997;53.300;-6.260;2023-08-30T06:30:45;12.13;89.71
71942;DHT22;59997;53.300;-6.260;2023-08-30T06:33:10;12.33;89.48
71942;DHT22;59997;53.300;-6.260;2023-08-30T06:35:37;12.51;89.48
71942;DHT22;59997;53.300;-6.260;2023-08-30T06:38:05;12.63;89.33
71942;DHT22;59997;53.300;-6.260;2023-08-30T06:40:32;12.73;89.11
71942;DHT22;59997;53.300;-6.260;2023-08-30T06:42:58;12.77;88.81
71942;DHT22;59997;53.300;-6.260;2023-08-30T06:45:24;12.84;88.60
71942;DHT22;59997;53.300;-6.260;2023-08-30T06:47:50;12.96;88.44
71942;DHT22;59997;53.300;-6.260;2023-08-30T06:50:17;12.96;88.21
71942;DHT22;59997;53.300;-6.260;2023-08-30T06:52:43;13.08;88.12
71942;DHT22;59997;53.300;-6.260;2023-08-30T06:55:09;13.15;88.00
71942;DHT22;59997;53.300;-6.260;2023-08-30T06:57:35;13.24;87.98
71942;DHT22;59997;53.300;-6.260;2023-08-30T07:00:00;13.37;87.90
71942;DHT22;59997;53.300;-6.260;2023-08-30T07:02:37;13.62;87.88
71942;DHT22;59997;53.300;-6.260;2023-08-30T07:05:04;13.75;87.49
71942;DHT22;59997;53.300;-6.260;2023-08-30T07:07:31;13.68;86.59
71942;DHT22;59997;53.300;-6.260;2023-08-30T07:09:57;13.77;86.68
71942;DHT22;59997;53.300;-6.260;2023-08-30T07:12:23;13.82;86.62
71942;DHT22;59997;53.300;-6.260;2023-08-30T07:14:49;13.92;86.16
71942;DHT22;59997;53.300;-6.260;2023-08-30T07:17:15;14.01;85.67
71942;DHT22;59997;53.300;-6.260;2023-08-30T07:19:40;14.02;85.26
71942;DHT22;59997;53.300;-6.260;2023-08-30T07:22:06;14.23;85.32
71942;DHT22;59997;53.300;-6.260;2023-08-30T07:24:32;14.44;84.50
71942;DHT22;59997;53.300;-6.260;2023-08-30T07:26:57;14.31;84.48
71942;DHT22;59997;53.300;-6.260;2023-08-30T07:29:23;14.36;85.06
71942;DHT22;59997;53.300;-6.260;2023-08-30T07:31:49;14.41;84.86
71942;DHT22;59997;53.300;-6.260;2023-08-30T07:34:19;14.78;83.60
71942;DHT22;59997;53.300;-6.260;2023-08-30T07:36:46;15.00;82.66
71942;DHT22;59997;53.300;-6.260;2023-08-30T07:39:12;15.04;82.11
71942;DHT22;59997;53.300;-6.260;2023-08-30T07:41:38;15.21;81.69
71942;DHT22;59997;53.300;-6.260;2023-08-30T07:44:05;15.34;81.36
71942;DHT22;59997;53.300;-6.260;2023-08-30T07:46:34;15.20;81.35
71942;DHT22;59997;53.300;-6.260;2023-08-30T07:49:00;15.49;81.07
71942;DHT22;59997;53.300;-6.260;2023-08-30T07:51:25;15.65;80.51
71942;DHT22;59997;53.300;-6.260;2023-08-30T07:53:51;15.67;80.13
71942;DHT22;59997;53.300;-6.260;2023-08-30T07:56:16;15.42;80.79
71942;DHT22;59997;53.300;-6.260;2023-08-30T07:58:43;15.58;80.31
71942;DHT22;59997;53.300;-6.260;2023-08-30T08:01:09;15.67;80.36
71942;DHT22;59997;53.300;-6.260;2023-08-30T08:03:36;15.86;79.37
71942;DHT22;59997;53.300;-6.260;2023-08-30T08:06:02;16.45;77.84
71942;DHT22;59997;53.300;-6.260;2023-08-30T08:08:29;16.77;76.80
71942;DHT22;59997;53.300;-6.260;2023-08-30T08:10:55;16.72;76.20
71942;DHT22;59997;53.300;-6.260;2023-08-30T08:13:21;17.45;74.37
71942;DHT22;59997;53.300;-6.260;2023-08-30T08:15:46;17.42;73.26
71942;DHT22;59997;53.300;-6.260;2023-08-30T08:18:12;17.22;73.87
71942;DHT22;59997;53.300;-6.260;2023-08-30T08:20:37;17.03;74.82
71942;DHT22;59997;53.300;-6.260;2023-08-30T08:23:04;17.27;74.77
71942;DHT22;59997;53.300;-6.260;2023-08-30T08:25:30;17.39;73.92
71942;DHT22;59997;53.300;-6.260;2023-08-30T08:27:55;18.05;73.09
71942;DHT22;59997;53.300;-6.260;2023-08-30T08:30:21;18.50;71.56
71942;DHT22;59997;53.300;-6.260;2023-08-30T08:32:48;17.70;72.57
71942;DHT22;59997;53.300;-6.260;2023-08-30T08:35:14;17.03;74.10
71942;DHT22;59997;53.300;-6.260;2023-08-30T08:37:41;17.14;74.74
71942;DHT22;59997;53.300;-6.260;2023-08-30T08:40:08;17.81;73.04
71942;DHT22;59997;53.300;-6.260;2023-08-30T08:42:35;17.52;72.58
71942;DHT22;59997;53.300;-6.260;2023-08-30T08:45:03;17.65;72.36
71942;DHT22;59997;53.300;-6.260;2023-08-30T08:47:30;18.12;71.00
71942;DHT22;59997;53.300;-6.260;2023-08-30T08:49:57;18.73;69.24
71942;DHT22;59997;53.300;-6.260;2023-08-30T08:52:26;18.92;68.03
71942;DHT22;59997;53.300;-6.260;2023-08-30T08:54:54;18.31;68.31
71942;DHT22;59997;53.300;-6.260;2023-08-30T08:57:20;18.26;69.82
71942;DHT22;59997;53.300;-6.260;2023-08-30T08:59:47;18.39;70.63
71942;DHT22;59997;53.300;-6.260;2023-08-30T09:02:15;18.38;70.12
71942;DHT22;59997;53.300;-6.260;2023-08-30T09:04:41;18.83;68.10
71942;DHT22;59997;53.300;-6.260;2023-08-30T09:07:07;18.53;66.84
71942;DHT22;59997;53.300;-6.260;2023-08-30T09:09:33;18.78;67.59
71942;DHT22;59997;53.300;-6.260;2023-08-30T09:11:59;18.43;67.68
71942;DHT22;59997;53.300;-6.260;2023-08-30T09:14:28;18.45;69.15
71942;DHT22;59997;53.300;-6.260;2023-08-30T09:17:02;17.77;68.38
71942;DHT22;59997;53.300;-6.260;2023-08-30T09:19:29;17.52;69.44
71942;DHT22;59997;53.300;-6.260;2023-08-30T09:21:57;16.86;71.14
71942;DHT22;59997;53.300;-6.260;2023-08-30T09:24:25;16.97;71.66
71942;DHT22;59997;53.300;-6.260;2023-08-30T09:26:53;17.56;70.09
71942;DHT22;59997;53.300;-6.260;2023-08-30T09:29:20;17.53;69.96
71942;DHT22;59997;53.300;-6.260;2023-08-30T09:31:53;17.46;69.27
71942;DHT22;59997;53.300;-6.260;2023-08-30T09:34:25;17.72;69.23
71942;DHT22;59997;53.300;-6.260;2023-08-30T09:36:51;17.49;68.67
71942;DHT22;59997;53.300;-6.260;2023-08-30T09:39:18;18.04;69.25
71942;DHT22;59997;53.300;-6.260;2023-08-30T09:41:45;18.63;70.68
71942;DHT22;59997;53.300;-6.260;2023-08-30T09:44:13;18.35;68.76
71942;DHT22;59997;53.300;-6.260;2023-08-30T09:46:49;17.96;68.83
71942;DHT22;59997;53.300;-6.260;2023-08-30T09:49:19;18.04;68.88
71942;DHT22;59997;53.300;-6.260;2023-08-30T09:51:47;18.49;67.60
71942;DHT22;59997;53.300;-6.260;2023-08-30T09:54:16;18.53;67.35
71942;DHT22;59997;53.300;-6.260;2023-08-30T09:56:44;17.86;68.46
71942;DHT22;59997;53.300;-6.260;2023-08-30T09:59:12;17.59;70.11
71942;DHT22;59997;53.300;-6.260;2023-08-30T10:01:39;17.91;69.92
71942;DHT22;59997;53.300;-6.260;2023-08-30T10:04:07;18.40;68.69
71942;DHT22;59997;53.300;-6.260;2023-08-30T10:06:35;19.32;64.72
71942;DHT22;59997;53.300;-6.260;2023-08-30T10:09:03;19.12;66.00
71942;DHT22;59997;53.300;-6.260;2023-08-30T10:11:32;18.97;66.63
71942;DHT22;59997;53.300;-6.260;2023-08-30T10:13:59;19.23;66.06
71942;DHT22;59997;53.300;-6.260;2023-08-30T10:16:27;20.22;61.95
71942;DHT22;59997;53.300;-6.260;2023-08-30T10:19:03;20.16;61.87
71942;DHT22;59997;53.300;-6.260;2023-08-30T10:21:31;19.15;65.81
71942;DHT22;59997;53.300;-6.260;2023-08-30T10:23:58;18.59;66.74
71942;DHT22;59997;53.300;-6.260;2023-08-30T10:26:26;18.50;68.24
71942;DHT22;59997;53.300;-6.260;2023-08-30T10:28:54;18.38;68.24
71942;DHT22;59997;53.300;-6.260;2023-08-30T10:31:21;17.94;68.49
71942;DHT22;59997;53.300;-6.260;2023-08-30T10:33:52;17.66;68.81
71942;DHT22;59997;53.300;-6.260;2023-08-30T10:36:23;17.86;68.94
71942;DHT22;59997;53.300;-6.260;2023-08-30T10:38:53;18.05;67.91
71942;DHT22;59997;53.300;-6.260;2023-08-30T10:41:36;19.67;65.87
71942;DHT22;59997;53.300;-6.260;2023-08-30T10:44:02;19.71;64.47
71942;DHT22;59997;53.300;-6.260;2023-08-30T10:46:34;19.66;62.94
71942;DHT22;59997;53.300;-6.260;2023-08-30T10:49:12;19.56;65.73
71942;DHT22;59997;53.300;-6.260;2023-08-30T10:51:44;19.45;63.66
71942;DHT22;59997;53.300;-6.260;2023-08-30T10:54:11;19.29;62.87
71942;DHT22;59997;53.300;-6.260;2023-08-30T10:56:57;20.48;61.94
71942;DHT22;59997;53.300;-6.260;2023-08-30T10:59:27;20.30;61.39
71942;DHT22;59997;53.300;-6.260;2023-08-30T11:01:55;20.30;60.52
71942;DHT22;59997;53.300;-6.260;2023-08-30T11:04:22;20.08;60.93
71942;DHT22;59997;53.300;-6.260;2023-08-30T11:06:51;20.36;60.69
71942;DHT22;59997;53.300;-6.260;2023-08-30T11:09:21;20.64;58.34
71942;DHT22;59997;53.300;-6.260;2023-08-30T11:11:48;20.43;58.03
71942;DHT22;59997;53.300;-6.260;2023-08-30T11:14:14;20.16;59.63
71942;DHT22;59997;53.300;-6.260;2023-08-30T11:16:40;20.79;58.19
71942;DHT22;59997;53.300;-6.260;2023-08-30T11:19:10;21.50;57.49
71942;DHT22;59997;53.300;-6.260;2023-08-30T11:21:39;21.41;58.27
71942;DHT22;59997;53.300;-6.260;2023-08-30T11:24:08;20.23;60.57
71942;DHT22;59997;53.300;-6.260;2023-08-30T11:26:35;20.02;61.33
71942;DHT22;59997;53.300;-6.260;2023-08-30T11:29:05;20.02;60.90
71942;DHT22;59997;53.300;-6.260;2023-08-30T11:31:32;19.36;62.97
71942;DHT22;59997;53.300;-6.260;2023-08-30T11:33:59;19.16;63.38
71942;DHT22;59997;53.300;-6.260;2023-08-30T11:36:29;18.57;64.14
71942;DHT22;59997;53.300;-6.260;2023-08-30T11:38:56;18.60;64.81
71942;DHT22;59997;53.300;-6.260;2023-08-30T11:41:23;18.31;64.47
71942;DHT22;59997;53.300;-6.260;2023-08-30T11:43:50;18.11;64.39
71942;DHT22;59997;53.300;-6.260;2023-08-30T11:46:21;18.22;64.08
71942;DHT22;59997;53.300;-6.260;2023-08-30T11:48:50;18.19;64.97
71942;DHT22;59997;53.300;-6.260;2023-08-30T11:51:16;18.36;64.75
71942;DHT22;59997;53.300;-6.260;2023-08-30T11:53:43;18.67;62.84
71942;DHT22;59997;53.300;-6.260;2023-08-30T11:56:10;19.01;63.13
71942;DHT22;59997;53.300;-6.260;2023-08-30T11:58:38;19.77;60.79
71942;DHT22;59997;53.300;-6.260;2023-08-30T12:01:04;19.56;61.65
71942;DHT22;59997;53.300;-6.260;2023-08-30T12:03:31;19.46;60.65
71942;DHT22;59997;53.300;-6.260;2023-08-30T12:05:58;19.46;62.46
71942;DHT22;59997;53.300;-6.260;2023-08-30T12:08:27;19.29;61.83
71942;DHT22;59997;53.300;-6.260;2023-08-30T12:10:55;19.23;62.08
71942;DHT22;59997;53.300;-6.260;2023-08-30T12:13:31;18.66;60.81
71942;DHT22;59997;53.300;-6.260;2023-08-30T12:15:59;18.33;62.53
71942;DHT22;59997;53.300;-6.260;2023-08-30T12:18:27;18.12;66.31
71942;DHT22;59997;53.300;-6.260;2023-08-30T12:21:03;17.83;64.81
71942;DHT22;59997;53.300;-6.260;2023-08-30T12:23:30;17.57;66.23
71942;DHT22;59997;53.300;-6.260;2023-08-30T12:26:07;17.46;69.13
71942;DHT22;59997;53.300;-6.260;2023-08-30T12:28:38;17.66;66.96
71942;DHT22;59997;53.300;-6.260;2023-08-30T12:31:05;17.69;65.70
71942;DHT22;59997;53.300;-6.260;2023-08-30T12:33:33;17.93;65.30
71942;DHT22;59997;53.300;-6.260;2023-08-30T12:36:01;18.36;64.54
71942;DHT22;59997;53.300;-6.260;2023-08-30T12:38:27;18.40;65.20
71942;DHT22;59997;53.300;-6.260;2023-08-30T12:40:55;18.43;65.72
71942;DHT22;59997;53.300;-6.260;2023-08-30T12:43:21;18.53;65.50
71942;DHT22;59997;53.300;-6.260;2023-08-30T12:45:48;18.56;63.84
71942;DHT22;59997;53.300;-6.260;2023-08-30T12:48:16;18.84;64.44
71942;DHT22;59997;53.300;-6.260;2023-08-30T12:50:44;19.02;63.54
71942;DHT22;59997;53.300;-6.260;2023-08-30T12:53:11;19.22;65.02
71942;DHT22;59997;53.300;-6.260;2023-08-30T12:55:38;19.35;61.62
71942;DHT22;59997;53.300;-6.260;2023-08-30T12:58:07;19.63;57.80
71942;DHT22;59997;53.300;-6.260;2023-08-30T13:00:34;19.60;64.09
71942;DHT22;59997;53.300;-6.260;2023-08-30T13:03:00;19.33;61.94
71942;DHT22;59997;53.300;-6.260;2023-08-30T13:05:26;18.68;62.88
71942;DHT22;59997;53.300;-6.260;2023-08-30T13:07:53;18.55;64.88
71942;DHT22;59997;53.300;-6.260;2023-08-30T13:10:19;18.61;64.17
71942;DHT22;59997;53.300;-6.260;2023-08-30T13:12:45;18.85;65.06
71942;DHT22;59997;53.300;-6.260;2023-08-30T13:15:10;19.11;64.03
71942;DHT22;59997;53.300;-6.260;2023-08-30T13:17:36;19.04;62.95
71942;DHT22;59997;53.300;-6.260;2023-08-30T13:20:03;19.25;64.44
71942;DHT22;59997;53.300;-6.260;2023-08-30T13:22:30;19.30;62.40
71942;DHT22;59997;53.300;-6.260;2023-08-30T13:24:56;18.98;62.65
71942;DHT22;59997;53.300;-6.260;2023-08-30T13:27:22;18.84;67.14
71942;DHT22;59997;53.300;-6.260;2023-08-30T13:29:47;18.43;64.71
71942;DHT22;59997;53.300;-6.260;2023-08-30T13:32:13;18.26;63.84
71942;DHT22;59997;53.300;-6.260;2023-08-30T13:34:40;18.32;65.94
71942;DHT22;59997;53.300;-6.260;2023-08-30T13:37:05;18.22;64.88
71942;DHT22;59997;53.300;-6.260;2023-08-30T13:39:31;18.25;63.47
71942;DHT22;59997;53.300;-6.260;2023-08-30T13:41:57;18.38;63.26
71942;DHT22;59997;53.300;-6.260;2023-08-30T13:44:23;18.53;62.13
71942;DHT22;59997;53.300;-6.260;2023-08-30T13:46:50;18.68;63.52
71942;DHT22;59997;53.300;-6.260;2023-08-30T13:49:16;18.98;61.51
71942;DHT22;59997;53.300;-6.260;2023-08-30T13:51:45;19.37;60.45
71942;DHT22;59997;53.300;-6.260;2023-08-30T13:54:11;19.46;60.35
71942;DHT22;59997;53.300;-6.260;2023-08-30T13:56:37;19.53;59.76
71942;DHT22;59997;53.300;-6.260;2023-08-30T13:59:07;19.67;64.39
71942;DHT22;59997;53.300;-6.260;2023-08-30T14:01:34;19.49;60.75
71942;DHT22;59997;53.300;-6.260;2023-08-30T14:04:02;19.16;64.15
71942;DHT22;59997;53.300;-6.260;2023-08-30T14:06:31;19.22;63.19
71942;DHT22;59997;53.300;-6.260;2023-08-30T14:08:57;19.07;61.54
71942;DHT22;59997;53.300;-6.260;2023-08-30T14:11:24;18.92;61.66
71942;DHT22;59997;53.300;-6.260;2023-08-30T14:13:49;18.81;62.22
71942;DHT22;59997;53.300;-6.260;2023-08-30T14:16:15;18.98;61.16
71942;DHT22;59997;53.300;-6.260;2023-08-30T14:18:43;19.37;61.34
71942;DHT22;59997;53.300;-6.260;2023-08-30T14:21:09;19.42;61.23
71942;DHT22;59997;53.300;-6.260;2023-08-30T14:23:35;19.53;60.38
71942;DHT22;59997;53.300;-6.260;2023-08-30T14:26:06;19.67;59.16
71942;DHT22;59997;53.300;-6.260;2023-08-30T14:28:49;19.75;59.64
71942;DHT22;59997;53.300;-6.260;2023-08-30T14:31:15;19.51;60.18
71942;DHT22;59997;53.300;-6.260;2023-08-30T14:33:43;19.51;59.72
71942;DHT22;59997;53.300;-6.260;2023-08-30T14:36:15;19.42;61.89
71942;DHT22;59997;53.300;-6.260;2023-08-30T14:38:42;19.11;60.24
71942;DHT22;59997;53.300;-6.260;2023-08-30T14:41:08;19.20;60.41
71942;DHT22;59997;53.300;-6.260;2023-08-30T14:43:33;19.30;65.16
71942;DHT22;59997;53.300;-6.260;2023-08-30T14:46:05;19.02;62.03
71942;DHT22;59997;53.300;-6.260;2023-08-30T14:48:34;18.75;66.54
71942;DHT22;59997;53.300;-6.260;2023-08-30T14:51:01;18.66;67.52
71942;DHT22;59997;53.300;-6.260;2023-08-30T14:53:27;18.91;69.29
71942;DHT22;59997;53.300;-6.260;2023-08-30T14:55:53;18.97;66.79
71942;DHT22;59997;53.300;-6.260;2023-08-30T14:58:21;18.94;68.74
71942;DHT22;59997;53.300;-6.260;2023-08-30T15:00:47;18.68;69.83
71942;DHT22;59997;53.300;-6.260;2023-08-30T15:03:14;18.88;66.96
71942;DHT22;59997;53.300;-6.260;2023-08-30T15:05:39;18.75;65.86
71942;DHT22;59997;53.300;-6.260;2023-08-30T15:08:06;18.74;66.87
71942;DHT22;59997;53.300;-6.260;2023-08-30T15:10:32;18.77;67.61
71942;DHT22;59997;53.300;-6.260;2023-08-30T15:12:57;18.75;67.23
71942;DHT22;59997;53.300;-6.260;2023-08-30T15:15:23;18.80;66.99
71942;DHT22;59997;53.300;-6.260;2023-08-30T15:17:49;18.80;66.82
71942;DHT22;59997;53.300;-6.260;2023-08-30T15:20:14;18.70;68.34
71942;DHT22;59997;53.300;-6.260;2023-08-30T15:22:40;18.49;67.85
71942;DHT22;59997;53.300;-6.260;2023-08-30T15:25:06;18.55;66.04
71942;DHT22;59997;53.300;-6.260;2023-08-30T15:27:33;18.73;67.93